Time;durP1;ratioP1;P1;durP2;ratioP2;P2;SDS_P1;SDS_P2;PMS_P1;PMS_P2;Temp;Humidity;BMP_temperature;BMP_pressure;BME280_temperature;BME280_humidity;BME280_pressure;Samples;Min_cycle;Max_cycle;Signal;HPM_P1;HPM_P2
2021/12/12 00:00:49;;;;;;;93.40;33.03;;;;;;;2.14;94.15;102173.44;5027860;28;20190;-76
2021/12/12 00:03:32;;;;;;;98.70;33.30;;;;;;;2.16;93.87;102178.59;5027791;28;20899;-75
2021/12/12 00:06:00;;;;;;;97.97;33.50;;;;;;;2.12;94.03;102177.47;5030335;28;20248;-76
2021/12/12 00:08:26;;;;;;;92.50;31.53;;;;;;;2.15;94.34;102177.72;5031186;28;20214;-75
2021/12/12 00:10:59;;;;;;;92.43;32.73;;;;;;;2.18;93.85;102172.91;5032703;28;20179;-75
2021/12/12 00:13:30;;;;;;;90.23;31.70;;;;;;;2.16;94.54;102183.66;5032558;28;20568;-76
2021/12/12 00:15:55;;;;;;;103.97;34.23;;;;;;;2.17;94.71;102185.41;5032649;28;20201;-75
2021/12/12 00:18:20;;;;;;;97.70;32.90;;;;;;;2.16;94.44;102188.72;5032414;28;20651;-75
2021/12/12 00:20:47;;;;;;;98.43;33.83;;;;;;;2.18;94.15;102184.63;5032598;28;20182;-76
2021/12/12 00:23:12;;;;;;;104.10;31.60;;;;;;;2.16;94.76;102186.19;5032525;28;20217;-75
2021/12/12 00:25:43;;;;;;;105.30;33.73;;;;;;;2.17;94.48;102183.78;5032417;28;20190;-75
2021/12/12 00:28:10;;;;;;;103.30;35.37;;;;;;;2.20;94.49;102185.66;5031191;28;20638;-76
2021/12/12 00:30:35;;;;;;;103.77;35.90;;;;;;;2.18;94.93;102180.47;5032283;28;20269;-76
2021/12/12 00:33:02;;;;;;;104.40;34.90;;;;;;;2.19;94.73;102187.28;5032259;28;20293;-75
2021/12/12 00:35:28;;;;;;;109.43;35.77;;;;;;;2.20;95.29;102185.66;5032346;28;20190;-76
2021/12/12 00:38:07;;;;;;;100.30;34.67;;;;;;;2.20;94.79;102191.56;5032340;28;21028;-76
2021/12/12 00:40:37;;;;;;;96.80;34.57;;;;;;;2.21;94.90;102188.25;5032064;28;20187;-75
2021/12/12 00:43:07;;;;;;;113.57;37.10;;;;;;;2.21;95.70;102185.72;5032238;28;20199;-76
2021/12/12 00:45:33;;;;;;;102.23;36.50;;;;;;;2.22;94.68;102179.03;5032416;28;20178;-75
2021/12/12 00:47:58;;;;;;;98.00;35.97;;;;;;;2.21;95.41;102180.69;5032034;28;20681;-75
2021/12/12 00:50:32;;;;;;;93.97;32.97;;;;;;;2.22;94.82;102174.88;5032049;28;20218;-75
2021/12/12 00:53:00;;;;;;;93.63;34.30;;;;;;;2.22;95.02;102171.47;5031862;28;20217;-76
2021/12/12 00:55:26;;;;;;;97.03;37.30;;;;;;;2.21;95.41;102178.16;5031573;28;20186;-76
2021/12/12 00:57:53;;;;;;;95.87;36.00;;;;;;;2.21;95.36;102173.09;5031538;28;20186;-76
2021/12/12 01:00:25;;;;;;;89.77;33.20;;;;;;;2.24;95.17;102178.38;5032009;28;20209;-76
2021/12/12 01:02:52;;;;;;;98.57;35.70;;;;;;;2.24;95.35;102170.81;5030389;28;20214;-76
2021/12/12 01:05:19;;;;;;;87.57;33.00;;;;;;;2.22;95.04;102177.41;5031872;28;20186;-76
2021/12/12 01:07:48;;;;;;;90.87;32.70;;;;;;;2.22;94.36;102179.94;5031660;28;20183;-76
2021/12/12 01:10:28;;;;;;;88.73;33.30;;;;;;;2.22;95.31;102182.47;5031163;28;20224;-76
2021/12/12 01:12:55;;;;;;;85.30;33.60;;;;;;;2.23;95.39;102186.75;5031096;28;20612;-76
2021/12/12 01:15:27;;;;;;;88.17;35.67;;;;;;;2.23;94.48;102184.22;5031391;28;20202;-75
2021/12/12 01:17:58;;;;;;;94.00;34.27;;;;;;;2.23;95.14;102190.91;5030006;28;20171;-75
2021/12/12 01:20:38;;;;;;;95.43;34.83;;;;;;;2.22;95.33;102179.94;5031494;28;20561;-75
2021/12/12 01:23:42;;;;;;;93.97;34.00;;;;;;;2.23;94.81;102184.22;5031348;28;20210;-76
2021/12/12 01:26:08;;;;;;;94.53;33.30;;;;;;;2.23;94.97;102183.31;5030446;28;20209;-76
2021/12/12 01:28:36;;;;;;;94.43;34.70;;;;;;;2.22;95.33;102190.03;5030858;28;20210;-76
2021/12/12 01:31:05;;;;;;;85.27;31.50;;;;;;;2.22;95.42;102181.56;5031004;28;20566;-76
2021/12/12 01:33:34;;;;;;;90.63;34.30;;;;;;;2.24;94.92;102190.13;5030797;28;20229;-76
2021/12/12 01:36:11;;;;;;;80.53;31.53;;;;;;;2.23;94.89;102186.75;5043724;28;20728;-75
2021/12/12 01:38:55;;;;;;;91.53;33.63;;;;;;;2.23;94.96;102189.28;5050737;28;20661;-75
2021/12/12 01:41:56;;;;;;;91.03;31.63;;;;;;;2.25;95.72;102197.81;5050759;28;20267;-76
2021/12/12 01:44:37;;;;;;;77.13;28.50;;;;;;;2.25;95.25;102202.88;5041881;28;20232;-76
2021/12/12 01:47:09;;;;;;;87.30;30.67;;;;;;;2.26;94.97;102207.16;5050611;28;20276;-76
2021/12/12 01:49:38;;;;;;;82.50;31.57;;;;;;;2.28;95.68;102195.53;5050467;28;20332;-75
2021/12/12 01:52:06;;;;;;;78.70;29.43;;;;;;;2.28;94.60;102200.59;5050584;28;20201;-76
2021/12/12 01:54:43;;;;;;;71.10;28.47;;;;;;;2.28;95.51;102193.00;5050787;28;20209;-75
2021/12/12 01:57:11;;;;;;;75.23;29.97;;;;;;;2.29;95.18;102186.31;5050917;28;20184;-76
2021/12/12 01:59:40;;;;;;;73.73;30.47;;;;;;;2.29;94.67;102194.75;5050586;28;20301;-76
2021/12/12 02:02:12;;;;;;;73.43;28.10;;;;;;;2.32;94.75;102204.22;5050689;28;20186;-76
2021/12/12 02:04:47;;;;;;;75.30;29.83;;;;;;;2.32;95.27;102200.06;5049110;28;20641;-75
2021/12/12 02:07:16;;;;;;;76.03;29.07;;;;;;;2.34;94.50;102206.09;5050267;28;20284;-76
2021/12/12 02:09:42;;;;;;;62.73;28.17;;;;;;;2.37;95.04;102193.69;5050073;28;20965;-76
2021/12/12 02:12:08;;;;;;;66.53;27.47;;;;;;;2.38;95.10;102189.50;5050158;28;20276;-75
2021/12/12 02:14:37;;;;;;;69.73;28.03;;;;;;;2.38;95.00;102197.06;5050026;28;20344;-75
2021/12/12 02:17:20;;;;;;;66.13;26.03;;;;;;;2.40;94.99;102204.03;5050104;28;20242;-75
2021/12/12 02:20:06;;;;;;;64.30;25.13;;;;;;;2.43;94.21;102196.66;5048810;28;20197;-75
2021/12/12 02:36:18;;;;;;;62.60;25.40;;;;;;;2.49;94.22;102203.81;5035651;28;20273;-76
2021/12/12 02:38:45;;;;;;;57.77;23.87;;;;;;;2.49;93.84;102202.16;5029671;28;20252;-76
2021/12/12 02:41:13;;;;;;;61.23;26.37;;;;;;;2.50;93.93;102198.88;5029957;28;20190;-77
2021/12/12 02:43:43;;;;;;;60.30;26.00;;;;;;;2.50;94.42;102193.81;5028280;28;20213;-76
2021/12/12 02:46:13;;;;;;;55.10;24.47;;;;;;;2.54;94.35;102203.38;5029519;28;20178;-76
2021/12/12 02:48:41;;;;;;;51.20;24.00;;;;;;;2.55;93.73;102195.03;5029327;28;20216;-76
2021/12/12 02:51:12;;;;;;;56.70;25.40;;;;;;;2.57;94.16;102193.47;5029683;28;20190;-76
2021/12/12 02:53:41;;;;;;;63.63;25.03;;;;;;;2.56;94.39;102196.78;5029621;28;20214;-76
2021/12/12 02:56:11;;;;;;;55.97;24.27;;;;;;;2.57;94.30;102192.63;5029633;28;20187;-75
2021/12/12 02:58:38;;;;;;;57.90;24.10;;;;;;;2.57;93.66;102195.16;5028180;28;20655;-76
2021/12/12 03:01:34;;;;;;;59.27;24.93;;;;;;;2.58;94.38;102197.75;5029733;28;20190;-76
2021/12/12 03:04:00;;;;;;;55.97;24.53;;;;;;;2.59;94.21;102199.53;5029472;28;20222;-76
2021/12/12 03:06:31;;;;;;;55.20;25.03;;;;;;;2.60;93.76;102187.75;5028480;28;20252;-76
2021/12/12 03:09:06;;;;;;;68.33;26.30;;;;;;;2.59;93.79;102196.13;5029178;28;20214;-76
2021/12/12 03:11:32;;;;;;;58.87;26.33;;;;;;;2.58;94.29;102197.75;5029402;28;20167;-76
2021/12/12 03:13:58;;;;;;;58.00;25.37;;;;;;;2.61;94.54;102190.41;5029401;28;20202;-76
2021/12/12 03:16:24;;;;;;;56.40;25.20;;;;;;;2.60;94.03;102191.19;5029503;28;20189;-76
2021/12/12 03:18:50;;;;;;;59.23;25.40;;;;;;;2.62;94.18;102189.63;5029174;28;20261;-76
2021/12/12 03:21:29;;;;;;;62.40;25.93;;;;;;;2.63;94.24;102193.94;5029335;28;20302;-76
2021/12/12 03:23:56;;;;;;;60.50;25.83;;;;;;;2.62;93.80;102186.25;5030303;28;20706;-75
2021/12/12 03:26:22;;;;;;;67.43;27.03;;;;;;;2.64;93.99;102184.69;5049096;28;20186;-75
2021/12/12 03:28:51;;;;;;;59.80;26.80;;;;;;;2.67;93.82;102189.97;5048849;28;20629;-75
2021/12/12 03:31:27;;;;;;;62.73;26.93;;;;;;;2.69;93.50;102189.31;5049288;28;20687;-76
2021/12/12 03:33:54;;;;;;;59.63;26.17;;;;;;;2.69;94.02;102186.78;5048855;28;20244;-75
2021/12/12 03:36:20;;;;;;;67.17;27.33;;;;;;;2.69;93.96;102183.38;5049157;28;20599;-76
2021/12/12 03:38:51;;;;;;;67.40;26.27;;;;;;;2.71;93.78;102190.28;5039859;28;20182;-76
2021/12/12 03:41:20;;;;;;;67.13;28.20;;;;;;;2.73;94.04;102190.41;5030796;28;20226;-75
2021/12/12 03:43:55;;;;;;;74.23;29.17;;;;;;;2.74;93.93;102189.63;5033148;28;20233;-76
2021/12/12 03:46:21;;;;;;;69.37;27.63;;;;;;;2.74;93.42;102189.63;5033592;28;20186;-75
2021/12/12 03:48:47;;;;;;;72.40;28.90;;;;;;;2.77;94.23;102182.28;5032699;28;20206;-76
2021/12/12 03:51:16;;;;;;;69.87;28.47;;;;;;;2.78;93.95;102181.50;5032820;28;20197;-75
2021/12/12 03:53:42;;;;;;;72.93;28.93;;;;;;;2.79;94.66;102184.16;5032874;28;20210;-76
2021/12/12 03:56:11;;;;;;;68.73;28.17;;;;;;;2.81;94.04;102190.19;5032938;28;20651;-75
2021/12/12 03:58:38;;;;;;;77.23;30.90;;;;;;;2.83;94.08;102185.22;5032544;28;20358;-76
2021/12/12 04:01:06;;;;;;;82.03;30.17;;;;;;;2.85;93.88;102191.31;5032648;28;20198;-75
2021/12/12 04:03:31;;;;;;;73.43;29.53;;;;;;;2.86;93.83;102188.88;5044057;28;20209;-76
2021/12/12 04:06:01;;;;;;;78.13;30.53;;;;;;;2.87;94.21;102185.59;5052700;28;20591;-75
2021/12/12 04:08:33;;;;;;;77.77;29.00;;;;;;;2.90;94.64;102189.97;5052162;28;20181;-75
2021/12/12 04:10:58;;;;;;;81.30;28.90;;;;;;;2.91;94.07;102192.63;5052575;28;20962;-76
2021/12/12 04:13:24;;;;;;;74.50;29.23;;;;;;;2.93;94.69;102187.63;5052487;28;20201;-76
2021/12/12 04:15:51;;;;;;;72.60;29.63;;;;;;;2.95;94.23;102188.66;5052491;28;20235;-76
2021/12/12 04:18:23;;;;;;;74.53;30.27;;;;;;;2.99;94.72;102185.56;5050637;28;20193;-76
2021/12/12 04:20:49;;;;;;;78.67;30.80;;;;;;;2.99;93.99;102193.16;5052620;28;20194;-76
2021/12/12 04:23:17;;;;;;;82.10;31.00;;;;;;;3.03;93.92;102190.09;5052267;28;20197;-76
2021/12/12 04:25:42;;;;;;;78.53;31.73;;;;;;;3.04;93.78;102194.38;5052458;28;20193;-76
2021/12/12 04:28:08;;;;;;;73.30;29.80;;;;;;;3.07;94.49;102197.97;5052092;28;20982;-75
2021/12/12 04:30:33;;;;;;;83.27;32.57;;;;;;;3.05;93.99;102191.94;5050362;28;20235;-76
2021/12/12 04:32:58;;;;;;;79.03;32.20;;;;;;;3.09;94.27;102198.94;5034476;28;20216;-76
2021/12/12 04:35:26;;;;;;;82.83;31.93;;;;;;;3.11;94.29;102201.59;5032020;28;20190;-76
2021/12/12 04:37:53;;;;;;;74.83;30.93;;;;;;;3.12;93.88;102199.19;5031829;28;20191;-76
2021/12/12 04:40:21;;;;;;;71.17;29.70;;;;;;;3.18;93.73;102207.19;5031799;28;20214;-76
2021/12/12 04:42:48;;;;;;;86.73;33.00;;;;;;;3.18;94.20;102203.81;5032005;28;20214;-76
2021/12/12 04:45:42;;;;;;;93.27;34.77;;;;;;;3.20;93.90;102205.66;5035615;28;20600;-75
2021/12/12 04:51:13;;;;;;;87.03;32.83;;;;;;;3.24;94.06;102202.59;5051605;28;20273;-76
2021/12/12 04:53:54;;;;;;;85.67;31.40;;;;;;;3.24;93.88;102192.47;5051559;28;20218;-76
2021/12/12 04:56:33;;;;;;;85.60;33.10;;;;;;;3.28;94.32;102196.06;5051616;28;20189;-76
2021/12/12 04:59:12;;;;;;;78.47;31.87;;;;;;;3.28;94.36;102191.00;5033865;28;20182;-76
2021/12/12 05:01:42;;;;;;;85.87;32.80;;;;;;;3.27;93.98;102197.72;5051863;28;20181;-76
2021/12/12 05:04:19;;;;;;;78.50;32.13;;;;;;;3.30;94.11;102194.50;5040520;28;20206;-75
2021/12/12 05:07:01;;;;;;;79.93;31.73;;;;;;;3.34;93.88;102193.97;5031699;28;20186;-76
2021/12/12 05:09:35;;;;;;;79.47;31.13;;;;;;;3.33;93.74;102190.56;5032476;28;20202;-76
2021/12/12 05:12:13;;;;;;;89.77;33.13;;;;;;;3.35;93.33;102188.16;5038435;28;20194;-76
2021/12/12 05:14:45;;;;;;;90.50;34.60;;;;;;;3.35;93.71;102176.34;5051431;28;20209;-76
2021/12/12 05:17:17;;;;;;;80.93;33.60;;;;;;;3.36;93.90;102173.03;5041406;28;20182;-76
2021/12/12 05:19:48;;;;;;;90.53;34.43;;;;;;;3.38;94.25;102176.56;5031254;28;20194;-76
2021/12/12 05:22:17;;;;;;;107.57;35.17;;;;;;;3.39;93.92;102164.78;5031219;28;20187;-76
2021/12/12 05:24:47;;;;;;;90.57;33.27;;;;;;;3.39;94.29;102162.25;5031373;28;20244;-76
2021/12/12 05:27:17;;;;;;;89.60;35.83;;;;;;;3.40;94.59;102161.50;5031444;28;20195;-75
2021/12/12 05:29:55;;;;;;;91.93;34.97;;;;;;;3.43;93.79;102151.56;5043971;28;20328;-76
2021/12/12 05:32:22;;;;;;;90.63;34.83;;;;;;;3.41;94.71;102154.00;5050921;28;20217;-76
2021/12/12 05:34:49;;;;;;;85.97;34.97;;;;;;;3.43;94.73;102151.56;5051212;28;20630;-76
2021/12/12 05:37:17;;;;;;;96.53;35.50;;;;;;;3.43;94.98;102165.13;5050877;28;20182;-76
2021/12/12 05:39:44;;;;;;;100.27;35.60;;;;;;;3.44;94.40;102156.75;5049393;28;20189;-76
2021/12/12 05:42:11;;;;;;;91.67;35.17;;;;;;;3.48;94.30;102163.78;5051008;28;20247;-76
2021/12/12 05:44:37;;;;;;;88.80;34.97;;;;;;;3.49;94.65;102159.59;5050821;28;20190;-76
2021/12/12 05:47:05;;;;;;;99.20;36.70;;;;;;;3.50;94.79;102156.28;5050919;28;20700;-76
2021/12/12 05:49:32;;;;;;;98.67;36.50;;;;;;;3.50;94.55;102152.09;5049296;28;20241;-76
2021/12/12 05:51:59;;;;;;;89.40;34.77;;;;;;;3.51;95.06;102151.34;5049199;28;20288;-76
2021/12/12 05:54:29;;;;;;;97.67;36.83;;;;;;;3.50;94.58;102152.09;5050602;28;20206;-76
2021/12/12 05:56:55;;;;;;;94.83;35.13;;;;;;;3.52;94.99;102149.66;5050652;28;20197;-76
2021/12/12 05:59:21;;;;;;;91.73;35.57;;;;;;;3.55;94.80;102144.81;5050425;28;20204;-76
2021/12/12 06:01:47;;;;;;;103.07;35.63;;;;;;;3.56;94.80;102146.56;5050397;28;20729;-76
2021/12/12 06:04:13;;;;;;;98.97;35.53;;;;;;;3.55;95.25;102152.41;5049871;28;20642;-76
2021/12/12 06:06:42;;;;;;;90.73;35.13;;;;;;;3.58;95.33;102158.56;5050503;28;20654;-76
2021/12/12 06:09:10;;;;;;;104.00;36.23;;;;;;;3.58;95.01;102160.22;5048778;28;20593;-76
2021/12/12 06:11:43;;;;;;;91.90;34.77;;;;;;;3.60;94.65;102171.31;5050189;28;20215;-76
2021/12/12 06:14:09;;;;;;;88.63;35.20;;;;;;;3.61;94.55;102162.94;5050287;28;20229;-75
2021/12/12 06:16:37;;;;;;;94.23;37.27;;;;;;;3.62;94.67;102162.16;5049042;28;20705;-76
2021/12/12 06:19:07;;;;;;;95.03;36.63;;;;;;;3.63;94.63;102158.88;5048644;28;20182;-76
2021/12/12 06:21:33;;;;;;;94.90;37.60;;;;;;;3.61;94.72;102163.84;5050136;28;20170;-76
2021/12/12 06:24:00;;;;;;;95.00;37.23;;;;;;;3.62;95.22;102160.53;5050005;28;20225;-75
2021/12/12 06:26:26;;;;;;;94.20;36.30;;;;;;;3.64;94.73;102166.56;5048744;28;20182;-76
2021/12/12 06:28:52;;;;;;;86.93;36.07;;;;;;;3.64;94.77;102166.56;5049516;28;20209;-76
2021/12/12 06:31:18;;;;;;;96.07;37.53;;;;;;;3.66;94.75;102166.66;5048717;28;20247;-76
2021/12/12 06:33:43;;;;;;;96.57;35.17;;;;;;;3.65;94.99;102163.28;5049746;28;20212;-76
2021/12/12 06:36:12;;;;;;;94.73;35.20;;;;;;;3.64;95.15;102164.03;5050244;28;20536;-76
2021/12/12 06:38:42;;;;;;;87.77;35.00;;;;;;;3.65;95.10;102157.31;5050157;28;20200;-76
2021/12/12 06:41:09;;;;;;;87.47;34.40;;;;;;;3.65;94.91;102150.63;5050501;28;20207;-76
2021/12/12 06:43:35;;;;;;;94.03;36.17;;;;;;;3.63;94.84;102154.69;5050236;28;20232;-76
2021/12/12 06:46:03;;;;;;;85.77;33.13;;;;;;;3.64;95.03;102161.50;5050294;28;20178;-75
2021/12/12 06:48:29;;;;;;;86.13;33.30;;;;;;;3.64;95.00;102161.50;5049586;28;20293;-76
2021/12/12 06:50:56;;;;;;;81.53;34.10;;;;;;;3.65;94.91;102158.22;5049717;28;20635;-76
2021/12/12 06:53:24;;;;;;;84.00;33.00;;;;;;;3.64;94.31;102151.38;5049721;28;20570;-76
2021/12/12 06:55:52;;;;;;;78.97;32.67;;;;;;;3.65;94.67;102154.78;5049448;28;20231;-76
2021/12/12 06:58:19;;;;;;;76.83;32.90;;;;;;;3.64;94.77;102151.38;5049257;28;20181;-76
2021/12/12 07:00:49;;;;;;;84.90;33.53;;;;;;;3.65;94.47;102154.78;5049562;28;20184;-76
2021/12/12 07:03:17;;;;;;;86.57;33.60;;;;;;;3.63;94.13;102147.09;5049381;28;20205;-75
2021/12/12 07:05:43;;;;;;;82.80;32.10;;;;;;;3.64;94.46;102146.31;5048048;28;20273;-76
2021/12/12 07:08:10;;;;;;;72.60;31.63;;;;;;;3.65;94.31;102148.09;5049132;28;20269;-76
2021/12/12 07:10:36;;;;;;;78.23;32.10;;;;;;;3.65;94.67;102145.56;5041101;28;20206;-76
2021/12/12 07:13:03;;;;;;;77.00;32.70;;;;;;;3.67;94.87;102140.56;5049439;28;20697;-75
2021/12/12 07:15:35;;;;;;;75.70;32.23;;;;;;;3.62;94.35;102139.38;5049418;28;20189;-75
2021/12/12 07:18:06;;;;;;;68.93;29.53;;;;;;;3.80;94.73;102138.97;5050320;28;20730;-75
2021/12/12 07:20:32;;;;;;;69.20;30.47;;;;;;;3.89;94.59;102137.06;5049608;28;20533;-75
2021/12/12 07:22:58;;;;;;;74.53;29.47;;;;;;;3.96;94.25;102134.13;5049603;28;20213;-76
2021/12/12 07:25:23;;;;;;;71.80;30.13;;;;;;;3.81;94.00;102129.69;5049525;28;20193;-77
2021/12/12 07:27:52;;;;;;;62.63;28.60;;;;;;;3.90;94.05;102130.31;5050016;28;20653;-76
2021/12/12 07:30:19;;;;;;;66.23;27.57;;;;;;;3.97;93.82;102129.97;5048033;28;20220;-77
2021/12/12 07:32:45;;;;;;;65.90;26.77;;;;;;;3.94;93.28;102123.03;5049613;28;20212;-76
2021/12/12 07:35:13;;;;;;;59.57;26.90;;;;;;;4.00;92.97;102127.63;5049594;28;20550;-74
2021/12/12 07:37:39;;;;;;;65.27;27.73;;;;;;;3.88;93.01;102122.66;5048527;28;20877;-76
2021/12/12 07:40:07;;;;;;;58.77;27.97;;;;;;;3.86;92.88;102120.78;5049185;28;20190;-76
2021/12/12 07:42:32;;;;;;;67.00;29.00;;;;;;;3.84;93.17;102113.06;5049099;28;20178;-75
2021/12/12 07:44:58;;;;;;;59.37;26.90;;;;;;;3.82;93.62;102111.22;5036746;28;20224;-77
2021/12/12 07:47:23;;;;;;;65.17;28.20;;;;;;;3.81;93.29;102117.94;5029389;28;20186;-76
2021/12/12 07:49:50;;;;;;;63.33;26.87;;;;;;;3.81;93.58;102115.41;5029063;28;20240;-75
2021/12/12 07:52:19;;;;;;;61.07;26.03;;;;;;;3.82;93.73;102112.09;5029738;28;20664;-78
2021/12/12 07:54:49;;;;;;;61.30;26.07;;;;;;;3.82;93.72;102116.28;5031783;28;20703;-76
2021/12/12 07:57:15;;;;;;;55.20;25.80;;;;;;;3.83;93.18;102118.03;5027894;28;20236;-77
2021/12/12 07:59:41;;;;;;;51.33;25.80;;;;;;;3.82;93.30;102121.34;5044044;28;20178;-76
2021/12/12 08:02:08;;;;;;;64.47;27.33;;;;;;;3.80;93.18;102120.34;5044661;28;20643;-76
2021/12/12 08:04:35;;;;;;;49.03;24.60;;;;;;;3.82;93.87;102122.22;5045718;28;20213;-76
2021/12/12 08:07:01;;;;;;;51.73;25.23;;;;;;;3.86;93.71;102118.25;5043707;28;20201;-77
2021/12/12 08:09:34;;;;;;;50.40;24.60;;;;;;;3.87;93.21;102122.53;5048150;28;20659;-76
2021/12/12 08:12:14;;;;;;;51.57;24.47;;;;;;;3.82;93.81;102117.16;5071450;28;20517;-76
2021/12/12 08:14:52;;;;;;;50.73;22.70;;;;;;;3.87;94.00;102118.31;5068856;28;20198;-76
2021/12/12 08:17:27;;;;;;;47.87;21.97;;;;;;;3.87;93.53;102114.94;5055145;28;20216;-77
2021/12/12 08:20:06;;;;;;;49.70;22.77;;;;;;;3.86;93.65;102110.66;5072192;28;20190;-76
2021/12/12 08:22:33;;;;;;;44.67;21.33;;;;;;;3.91;93.65;102105.09;5054528;28;20186;-75
2021/12/12 08:25:00;;;;;;;40.70;20.40;;;;;;;3.90;93.08;102108.41;5072944;28;20205;-76
2021/12/12 08:27:28;;;;;;;49.63;21.70;;;;;;;3.92;93.28;102113.56;5075109;28;20186;-76
2021/12/12 08:29:55;;;;;;;42.13;20.40;;;;;;;3.94;93.25;102101.88;5077016;28;20243;-76
2021/12/12 08:32:22;;;;;;;46.90;21.40;;;;;;;3.96;93.22;102105.41;5074344;28;20214;-76
2021/12/12 08:34:48;;;;;;;42.97;20.80;;;;;;;3.97;93.49;102102.09;5056356;28;20201;-75
2021/12/12 08:37:13;;;;;;;50.00;20.73;;;;;;;4.01;93.17;102099.84;5043389;28;20205;-76
2021/12/12 08:39:39;;;;;;;43.33;20.40;;;;;;;4.15;93.08;102093.16;5032374;28;20244;-74
2021/12/12 08:42:06;;;;;;;42.40;18.77;;;;;;;4.28;93.36;102088.97;5040908;28;20243;-74
2021/12/12 08:44:34;;;;;;;35.10;18.00;;;;;;;4.27;92.65;102083.78;5052973;28;20209;-73
2021/12/12 08:47:04;;;;;;;36.83;16.40;;;;;;;4.19;92.56;102078.22;5051792;28;20197;-76
2021/12/12 08:49:32;;;;;;;35.57;17.40;;;;;;;4.15;92.63;102071.19;5052189;28;20201;-76
2021/12/12 08:52:05;;;;;;;35.97;17.47;;;;;;;4.16;92.43;102073.00;5051963;28;20182;-77
2021/12/12 08:54:34;;;;;;;33.60;16.70;;;;;;;4.16;92.62;102067.91;5052052;28;20213;-77
2021/12/12 08:57:34;;;;;;;35.67;16.50;;;;;;;4.17;92.66;102063.72;5051375;28;20200;-76
2021/12/12 09:00:01;;;;;;;34.83;15.70;;;;;;;4.15;93.10;102060.22;5051457;28;20218;-76
2021/12/12 09:02:27;;;;;;;36.33;15.83;;;;;;;4.15;92.14;102053.47;5051686;28;20524;-76
2021/12/12 09:05:07;;;;;;;33.13;17.30;;;;;;;4.16;92.73;102051.81;5051836;28;20327;-76
2021/12/12 09:07:37;;;;;;;35.53;17.13;;;;;;;4.17;92.56;102041.78;5051769;28;20178;-76
2021/12/12 09:10:12;;;;;;;31.83;16.20;;;;;;;4.19;92.87;102025.00;5051690;28;20219;-74
2021/12/12 09:12:44;;;;;;;31.80;15.67;;;;;;;4.18;92.86;102023.25;5050119;28;22913;-75
2021/12/12 09:15:13;;;;;;;35.40;16.03;;;;;;;4.17;93.38;102036.72;5050040;28;20190;-75
2021/12/12 09:17:53;;;;;;;30.13;15.23;;;;;;;4.22;93.23;102024.31;5051192;28;20675;-75
2021/12/12 09:20:19;;;;;;;32.90;13.77;;;;;;;4.23;93.15;102034.56;5051155;28;20190;-75
2021/12/12 09:22:59;;;;;;;31.43;14.70;;;;;;;4.26;93.38;102036.41;5050948;28;20259;-75
2021/12/12 09:25:49;;;;;;;28.83;14.13;;;;;;;4.29;93.53;102034.97;5051212;28;20198;-75
2021/12/12 09:28:29;;;;;;;28.73;13.83;;;;;;;4.27;93.57;102044.13;5050934;28;20705;-77
2021/12/12 09:30:58;;;;;;;30.10;14.53;;;;;;;4.28;93.86;102043.34;5049753;28;20201;-76
2021/12/12 09:33:29;;;;;;;29.33;13.17;;;;;;;4.30;94.10;102035.84;5050772;28;20769;-76
2021/12/12 09:36:12;;;;;;;28.87;13.27;;;;;;;4.29;94.41;102036.63;5050948;28;20186;-76
2021/12/12 09:38:46;;;;;;;26.00;12.70;;;;;;;4.30;94.69;102035.84;5029788;28;20262;-76
2021/12/12 09:41:20;;;;;;;28.63;12.93;;;;;;;4.29;94.71;102032.44;5031132;28;20178;-76
2021/12/12 09:44:19;;;;;;;29.43;13.60;;;;;;;4.32;94.91;102034.28;5043495;28;20216;-76
2021/12/12 09:47:00;;;;;;;26.20;13.00;;;;;;;4.31;94.64;102035.03;5050850;28;20170;-77
2021/12/12 09:52:55;;;;;;;29.77;13.73;;;;;;;4.32;94.96;102036.81;5040156;28;20186;-76
2021/12/12 09:55:32;;;;;;;26.40;12.30;;;;;;;4.35;95.16;102030.28;5034188;28;20170;-77
2021/12/12 09:58:09;;;;;;;27.43;12.40;;;;;;;4.33;95.36;102030.97;5050239;28;20204;-76
2021/12/12 10:00:49;;;;;;;25.53;13.17;;;;;;;4.32;95.62;102039.34;5049100;28;20177;-76
2021/12/12 10:03:49;;;;;;;24.27;13.70;;;;;;;4.32;95.75;102032.63;5041445;28;20249;-77
2021/12/12 10:06:32;;;;;;;31.30;13.37;;;;;;;4.37;95.83;102038.84;5049134;28;20212;-77
2021/12/12 10:09:04;;;;;;;26.97;12.67;;;;;;;4.38;95.69;102032.13;5048675;28;20218;-76
2021/12/12 10:11:45;;;;;;;30.60;13.00;;;;;;;4.40;95.67;102030.56;5050410;28;20243;-77
2021/12/12 10:14:23;;;;;;;24.20;12.70;;;;;;;4.38;95.99;102027.91;5049073;28;20225;-76
2021/12/12 10:17:00;;;;;;;26.37;12.63;;;;;;;4.40;96.15;102026.38;5051122;28;20247;-79
2021/12/12 10:19:44;;;;;;;26.73;13.40;;;;;;;4.44;95.98;102025.78;5050004;28;20606;-77
2021/12/12 10:22:09;;;;;;;26.97;13.23;;;;;;;4.45;96.00;102030.06;5048411;28;20197;-77
2021/12/12 10:24:40;;;;;;;23.90;11.53;;;;;;;4.48;96.06;102029.38;5048657;28;20222;-77
2021/12/12 10:27:23;;;;;;;23.57;11.80;;;;;;;4.50;96.14;102023.63;5050215;28;20182;-76
2021/12/12 10:30:17;;;;;;;23.93;12.17;;;;;;;4.52;96.35;102022.03;5048827;28;20210;-79
2021/12/12 10:33:08;;;;;;;22.20;11.87;;;;;;;4.55;96.19;102017.19;5050083;28;20218;-78
2021/12/12 10:35:41;;;;;;;19.97;11.17;;;;;;;4.56;96.77;102015.53;5048780;28;20178;-78
2021/12/12 10:38:21;;;;;;;20.60;11.13;;;;;;;4.59;96.67;102014.06;5049670;28;20260;-76
2021/12/12 10:40:55;;;;;;;17.20;10.50;;;;;;;4.60;97.01;102014.94;5050132;28;20219;-76
2021/12/12 10:43:30;;;;;;;20.77;11.07;;;;;;;4.65;96.84;102021.16;5049818;28;20393;-77
2021/12/12 10:46:10;;;;;;;19.73;10.10;;;;;;;4.66;97.18;102020.38;5049863;28;20169;-77
2021/12/12 10:48:45;;;;;;;18.00;8.90;;;;;;;4.68;97.17;102023.88;5048207;28;20170;-76
2021/12/12 10:51:17;;;;;;;16.47;9.77;;;;;;;4.70;97.36;102013.03;5049635;28;20184;-78
2021/12/12 10:54:00;;;;;;;15.40;9.23;;;;;;;4.71;97.68;102008.84;5049875;28;20209;-78
2021/12/12 10:56:34;;;;;;;15.30;9.13;;;;;;;4.82;97.62;101996.03;5048260;28;20201;-76
2021/12/12 10:59:10;;;;;;;17.27;9.60;;;;;;;4.97;97.20;102004.56;5050455;28;20182;-76
2021/12/12 11:01:38;;;;;;;16.17;9.03;;;;;;;5.03;97.04;102004.06;5051481;28;20173;-76
2021/12/12 11:04:15;;;;;;;14.37;8.13;;;;;;;4.87;97.12;102012.41;5050524;28;20201;-76
2021/12/12 11:06:58;;;;;;;15.23;8.90;;;;;;;4.84;97.19;102009.69;5054001;28;20177;-77
2021/12/12 11:09:50;;;;;;;13.33;8.20;;;;;;;4.88;97.26;102000.63;5048707;28;20239;-76
2021/12/12 11:12:45;;;;;;;17.27;8.63;;;;;;;4.85;97.01;101995.34;5037258;28;20182;-77
2021/12/12 11:15:29;;;;;;;15.27;7.17;;;;;;;4.87;97.09;102001.38;5044195;28;20185;-76
2021/12/12 11:17:59;;;;;;;12.33;7.80;;;;;;;4.82;97.41;101980.81;5048991;28;20198;-77
2021/12/12 11:20:35;;;;;;;12.37;7.73;;;;;;;4.86;97.28;101982.75;5029563;28;20281;-77
2021/12/12 11:23:25;;;;;;;11.50;7.00;;;;;;;4.88;96.90;101993.00;5029016;28;20225;-77
2021/12/12 11:25:57;;;;;;;13.17;7.67;;;;;;;4.86;97.03;101986.94;5030061;28;20716;-78
2021/12/12 11:28:35;;;;;;;13.83;7.77;;;;;;;4.86;96.99;101992.03;5028888;28;20170;-76
2021/12/12 11:31:12;;;;;;;15.30;8.17;;;;;;;4.90;97.29;101993.97;5028888;28;20552;-76
2021/12/12 11:33:40;;;;;;;13.63;7.80;;;;;;;4.87;97.32;101994.66;5028866;28;20305;-76
2021/12/12 11:36:12;;;;;;;13.80;7.80;;;;;;;4.89;97.38;101989.69;5029900;28;20261;-77
2021/12/12 11:38:48;;;;;;;12.70;7.53;;;;;;;4.86;96.65;102000.50;5028872;28;20218;-77
2021/12/12 11:41:13;;;;;;;13.27;7.13;;;;;;;4.90;96.96;102009.19;5027387;28;20204;-77
2021/12/12 11:43:51;;;;;;;12.47;7.43;;;;;;;4.88;97.32;102004.00;5028859;28;20213;-79
2021/12/12 11:46:41;;;;;;;11.17;7.00;;;;;;;4.90;96.85;102009.19;5027430;28;20273;-76
2021/12/12 11:49:19;;;;;;;13.40;7.00;;;;;;;4.94;97.06;102012.00;5028184;28;20310;-77
2021/12/12 11:51:58;;;;;;;10.33;7.23;;;;;;;5.08;97.18;101997.59;5027960;28;20194;-75
2021/12/12 11:55:04;;;;;;;10.13;7.03;;;;;;;5.03;97.04;101994.81;5028754;28;20264;-77
2021/12/12 11:57:38;;;;;;;11.00;6.50;;;;;;;5.05;96.48;101990.69;5028467;28;20193;-76